createdAt,value
2018-03-17T00:00:13.031Z,0.60
2018-03-17T00:02:40.569Z,0.50
2018-03-17T00:05:08.868Z,0.60
2018-03-17T00:07:37.160Z,0.50
2018-03-17T00:10:04.685Z,0.50
2018-03-17T00:12:32.199Z,0.50
2018-03-17T00:14:59.735Z,0.60
2018-03-17T00:17:27.219Z,0.50
2018-03-17T00:19:54.768Z,0.60
2018-03-17T00:22:23.078Z,0.50
2018-03-17T00:24:50.562Z,0.50
2018-03-17T00:27:18.097Z,0.50
2018-03-17T00:29:45.636Z,0.50
2018-03-17T00:32:13.924Z,0.40
2018-03-17T00:34:41.420Z,0.40
2018-03-17T00:37:08.913Z,0.50
2018-03-17T00:39:36.423Z,0.50
2018-03-17T00:42:03.923Z,0.40
2018-03-17T00:44:31.454Z,0.40
2018-03-17T00:46:58.958Z,0.40
2018-03-17T00:49:26.480Z,0.40
2018-03-17T00:51:53.997Z,0.40
2018-03-17T00:54:21.525Z,0.40
2018-03-17T00:56:49.014Z,0.30
2018-03-17T00:59:16.509Z,0.30
2018-03-17T01:01:43.993Z,0.30
2018-03-17T01:04:11.493Z,0.30
2018-03-17T01:06:40.543Z,0.30
2018-03-17T01:09:08.831Z,0.20
2018-03-17T01:11:36.377Z,0.20
2018-03-17T01:14:03.867Z,0.30
2018-03-17T01:16:31.200Z,0.20
2018-03-17T01:18:59.503Z,0.20
2018-03-17T01:21:27.017Z,0.20
2018-03-17T01:23:54.502Z,0.20
2018-03-17T01:26:22.770Z,0.10
2018-03-17T01:28:51.048Z,0.20
2018-03-17T01:31:18.555Z,0.20
2018-03-17T01:33:46.065Z,0.10
2018-03-17T01:36:13.618Z,0.10
2018-03-17T01:38:41.146Z,0.10
2018-03-17T01:41:08.670Z,0.10
2018-03-17T01:43:36.203Z,0.10
2018-03-17T01:46:03.701Z,0.00
2018-03-17T01:48:31.212Z,0.00
2018-03-17T01:50:58.696Z,0.00
2018-03-17T01:53:26.194Z,0.00
2018-03-17T01:55:53.700Z,0.00
2018-03-17T01:58:21.201Z,0.00
2018-03-17T02:00:48.715Z,0.00
2018-03-17T02:03:16.215Z,0.00
2018-03-17T02:05:43.735Z,0.00
2018-03-17T02:08:11.234Z,0.00
2018-03-17T02:10:38.737Z,-0.10
2018-03-17T02:13:06.241Z,-0.10
2018-03-17T02:15:33.767Z,-0.10
2018-03-17T02:18:01.267Z,0.00
2018-03-17T02:20:28.801Z,-0.10
2018-03-17T02:22:57.103Z,-0.20
2018-03-17T02:25:24.657Z,-0.20
2018-03-17T02:27:52.971Z,-0.20
2018-03-17T02:30:20.510Z,-0.20
2018-03-17T02:32:48.037Z,-0.30
2018-03-17T02:35:15.533Z,-0.30
2018-03-17T02:37:43.060Z,-0.30
2018-03-17T02:40:10.581Z,-0.30
2018-03-17T02:42:38.089Z,-0.30
2018-03-17T02:45:05.596Z,-0.40
2018-03-17T02:47:33.130Z,-0.30
2018-03-17T02:50:00.636Z,-0.40
2018-03-17T02:52:28.142Z,-0.30
2018-03-17T02:54:55.845Z,-0.40
2018-03-17T02:57:23.357Z,-0.50
2018-03-17T02:59:50.854Z,-0.50
2018-03-17T03:02:18.368Z,-0.60
2018-03-17T03:04:45.868Z,-0.50
2018-03-17T03:07:13.381Z,-0.60
2018-03-17T03:09:40.895Z,-0.60
2018-03-17T03:12:09.173Z,-0.60
2018-03-17T03:14:36.671Z,-0.60
2018-03-17T03:17:04.198Z,-0.60
2018-03-17T03:19:31.705Z,-0.70
2018-03-17T03:21:59.205Z,-0.70
2018-03-17T03:24:26.762Z,-0.70
2018-03-17T03:26:54.266Z,-0.70
2018-03-17T03:29:21.763Z,-0.80
2018-03-17T03:31:49.367Z,-0.70
2018-03-17T03:34:16.886Z,-0.70
2018-03-17T03:36:45.195Z,-0.80
2018-03-17T03:39:12.717Z,-0.80
2018-03-17T03:41:40.232Z,-0.80
2018-03-17T03:44:07.772Z,-0.80
2018-03-17T03:46:35.589Z,-0.80
2018-03-17T03:49:03.089Z,-0.80
2018-03-17T03:51:30.617Z,-0.90
2018-03-17T03:53:58.915Z,-0.80
2018-03-17T03:56:26.431Z,-0.80
2018-03-17T03:58:53.921Z,-0.80
2018-03-17T04:01:21.413Z,-0.80
2018-03-17T04:03:48.924Z,-0.90
2018-03-17T04:06:16.466Z,-0.80
2018-03-17T04:08:44.132Z,-0.90
2018-03-17T04:11:11.623Z,-0.90
2018-03-17T04:13:39.139Z,-0.80
2018-03-17T04:16:06.674Z,-1.00
2018-03-17T04:18:34.164Z,-0.90
2018-03-17T04:21:01.471Z,-0.90
2018-03-17T04:23:29.008Z,-1.00
2018-03-17T04:25:56.517Z,-0.90
2018-03-17T04:28:23.871Z,-0.90
2018-03-17T04:30:51.356Z,-1.00
2018-03-17T04:33:18.870Z,-1.00
2018-03-17T04:35:46.367Z,-1.00
2018-03-17T04:38:13.857Z,-1.00
2018-03-17T04:40:41.376Z,-1.10
2018-03-17T04:43:08.868Z,-1.00
2018-03-17T04:45:36.371Z,-1.00
2018-03-17T04:48:03.877Z,-1.00
2018-03-17T04:50:31.396Z,-1.10
2018-03-17T04:52:58.901Z,-1.20
2018-03-17T04:55:26.394Z,-1.10
2018-03-17T04:57:53.886Z,-1.20
2018-03-17T05:00:22.193Z,-1.20
2018-03-17T05:02:49.711Z,-1.20
2018-03-17T05:05:17.197Z,-1.20
2018-03-17T05:07:44.728Z,-1.20
2018-03-17T05:10:12.230Z,-1.10
2018-03-17T05:12:39.739Z,-1.20
2018-03-17T05:15:07.259Z,-1.20
2018-03-17T05:17:34.767Z,-1.20
2018-03-17T05:20:02.460Z,-1.30
2018-03-17T05:22:29.976Z,-1.30
2018-03-17T05:24:57.473Z,-1.30
2018-03-17T05:27:24.952Z,-1.30
2018-03-17T05:29:53.258Z,-1.30
2018-03-17T05:32:20.788Z,-1.30
2018-03-17T05:34:48.290Z,-1.30
2018-03-17T05:37:15.632Z,-1.30
2018-03-17T05:39:43.717Z,-1.40
2018-03-17T05:42:11.250Z,-1.40
2018-03-17T05:44:38.758Z,-1.40
2018-03-17T05:47:06.270Z,-1.40
2018-03-17T05:49:33.810Z,-1.40
2018-03-17T05:52:01.315Z,-1.50
2018-03-17T05:54:29.577Z,-1.50
2018-03-17T05:56:57.088Z,-1.50
2018-03-17T05:59:24.620Z,-1.50
2018-03-17T06:01:52.965Z,-1.60
2018-03-17T06:04:20.472Z,-1.60
2018-03-17T06:06:48.157Z,-1.50
2018-03-17T06:09:15.644Z,-1.50
2018-03-17T06:11:43.172Z,-1.60
2018-03-17T06:14:16.327Z,-1.50
2018-03-17T06:16:43.851Z,-1.50
2018-03-17T06:19:11.412Z,-1.60
2018-03-17T06:21:38.951Z,-1.50
2018-03-17T06:24:09.817Z,-1.50
2018-03-17T06:26:37.397Z,-1.60
2018-03-17T06:29:05.751Z,-1.60
2018-03-17T06:31:33.269Z,-1.60
2018-03-17T06:34:00.788Z,-1.60
2018-03-17T06:36:28.356Z,-1.50
2018-03-17T06:38:56.014Z,-1.60
2018-03-17T06:41:24.352Z,-1.70
2018-03-17T06:43:51.864Z,-1.70
2018-03-17T06:46:20.158Z,-1.70
2018-03-17T06:48:47.702Z,-1.70
2018-03-17T06:51:15.284Z,-1.70
2018-03-17T06:53:42.829Z,-1.70
2018-03-17T06:56:11.115Z,-1.60
2018-03-17T06:58:38.624Z,-1.60
2018-03-17T07:01:06.882Z,-1.60
2018-03-17T07:03:34.415Z,-1.60
2018-03-17T07:06:02.700Z,-1.80
2018-03-17T07:08:30.979Z,-1.70
2018-03-17T07:10:59.264Z,-1.70
2018-03-17T07:13:26.788Z,-1.70
2018-03-17T07:15:55.091Z,-1.70
2018-03-17T07:18:22.645Z,-1.70
2018-03-17T07:20:50.212Z,-1.80
2018-03-17T07:23:17.880Z,-1.90
2018-03-17T07:25:46.167Z,-1.70
2018-03-17T07:28:13.693Z,-1.70
2018-03-17T07:30:41.201Z,-1.50
2018-03-17T07:33:09.488Z,-1.40
2018-03-17T07:35:37.776Z,-1.40
2018-03-17T07:38:06.089Z,-1.70
2018-03-17T07:40:33.629Z,-1.70
2018-03-17T07:43:01.160Z,-1.70
2018-03-17T07:45:28.645Z,-1.70
2018-03-17T07:47:56.166Z,-1.70
2018-03-17T07:50:23.655Z,-1.50
2018-03-17T07:52:50.959Z,-1.50
2018-03-17T07:55:18.480Z,-1.80
2018-03-17T07:57:45.999Z,-1.70
2018-03-17T08:00:13.867Z,-1.80
2018-03-17T08:02:41.393Z,-2.00
2018-03-17T08:05:09.681Z,-1.60
2018-03-17T08:07:37.238Z,-1.70
2018-03-17T08:10:04.809Z,-1.50
2018-03-17T08:12:32.500Z,-1.50
2018-03-17T08:15:00.017Z,-1.70
2018-03-17T08:17:28.331Z,-1.40
2018-03-17T08:19:55.850Z,-1.40
2018-03-17T08:22:23.374Z,-1.30
2018-03-17T08:24:51.823Z,-1.70
2018-03-17T08:27:20.154Z,-1.80
2018-03-17T08:29:47.684Z,-1.80
2018-03-17T08:32:15.968Z,-1.70
2018-03-17T08:34:43.475Z,-1.70
2018-03-17T08:37:10.999Z,-1.50
2018-03-17T08:39:38.549Z,-1.40
2018-03-17T08:42:06.077Z,-1.00
2018-03-17T08:44:33.626Z,-1.30
2018-03-17T08:47:01.132Z,-1.10
2018-03-17T08:49:28.651Z,-1.30
2018-03-17T08:51:56.188Z,-1.00
2018-03-17T08:54:23.682Z,-1.00
2018-03-17T08:56:51.205Z,-1.10
2018-03-17T08:59:18.733Z,-1.30
2018-03-17T09:01:46.241Z,-1.10
2018-03-17T09:04:13.600Z,-0.80
2018-03-17T09:06:41.132Z,-1.20
2018-03-17T09:09:08.730Z,-1.30
2018-03-17T09:11:36.257Z,-1.30
2018-03-17T09:14:03.800Z,-1.00
2018-03-17T09:16:31.331Z,-1.30
2018-03-17T09:18:58.885Z,-1.20
2018-03-17T09:21:27.190Z,-1.10
2018-03-17T09:23:55.472Z,-1.10
2018-03-17T09:26:23.000Z,-1.10
2018-03-17T09:28:50.788Z,-1.20
2018-03-17T09:31:18.295Z,-1.10
2018-03-17T09:33:45.839Z,-1.40
2018-03-17T09:36:13.336Z,-1.20
2018-03-17T09:38:40.847Z,-1.30
2018-03-17T09:41:08.355Z,-1.20
2018-03-17T09:43:35.893Z,-1.00
2018-03-17T09:46:03.404Z,-1.20
2018-03-17T09:48:30.910Z,-1.50
2018-03-17T09:50:58.416Z,-1.30
2018-03-17T09:53:25.946Z,-1.40
2018-03-17T09:55:54.211Z,-1.40
2018-03-17T09:58:21.776Z,-1.40
2018-03-17T10:00:49.363Z,-0.90
2018-03-17T10:03:16.902Z,-0.50
2018-03-17T10:05:44.442Z,-0.70
2018-03-17T10:08:12.739Z,-0.80
2018-03-17T10:10:40.286Z,-0.90
2018-03-17T10:13:07.791Z,-1.10
2018-03-17T10:15:35.338Z,-0.90
2018-03-17T10:18:02.842Z,-1.30
2018-03-17T10:20:30.396Z,-1.30
2018-03-17T10:22:57.916Z,-1.10
2018-03-17T10:25:25.261Z,-1.00
2018-03-17T10:27:52.776Z,-1.30
2018-03-17T10:30:20.278Z,-1.40
2018-03-17T10:32:47.792Z,-1.40
2018-03-17T10:35:15.321Z,-1.40
2018-03-17T10:37:43.619Z,-1.30
2018-03-17T10:40:11.174Z,-1.30
2018-03-17T10:42:38.689Z,-1.30
2018-03-17T10:45:06.022Z,-1.40
2018-03-17T10:47:33.521Z,-1.20
2018-03-17T10:50:01.063Z,-1.20
2018-03-17T10:52:28.362Z,-1.20
2018-03-17T10:54:55.901Z,-1.30
2018-03-17T10:57:23.240Z,-1.30
2018-03-17T10:59:50.570Z,-1.20
2018-03-17T11:02:18.687Z,-1.00
2018-03-17T11:04:46.364Z,-1.00
2018-03-17T11:07:13.892Z,-1.20
2018-03-17T11:09:42.194Z,-1.50
2018-03-17T11:12:10.489Z,-1.20
2018-03-17T11:14:38.028Z,-1.30
2018-03-17T11:17:05.546Z,-1.30
2018-03-17T11:19:33.248Z,-1.10
2018-03-17T11:22:00.778Z,-1.10
2018-03-17T11:24:28.276Z,-0.80
2018-03-17T11:26:55.810Z,-0.60
2018-03-17T11:29:23.333Z,-0.30
2018-03-17T11:31:50.830Z,0.30
2018-03-17T11:34:18.360Z,0.00
2018-03-17T11:36:45.867Z,-0.20
2018-03-17T11:39:14.150Z,-0.20
2018-03-17T11:41:42.295Z,-0.40
2018-03-17T11:44:09.823Z,-0.40
2018-03-17T11:46:37.182Z,-0.60
2018-03-17T11:49:04.724Z,-0.10
2018-03-17T11:51:33.036Z,-0.10
2018-03-17T11:54:00.613Z,-0.10
2018-03-17T11:56:28.281Z,0.00
2018-03-17T11:58:55.790Z,0.30
2018-03-17T12:01:23.323Z,-0.10
2018-03-17T12:03:50.838Z,-0.40
2018-03-17T12:06:18.369Z,0.20
2018-03-17T12:08:47.989Z,0.20
2018-03-17T12:11:15.608Z,-0.30
2018-03-17T12:13:43.125Z,-0.30
2018-03-17T12:16:10.650Z,0.20
2018-03-17T12:18:38.162Z,-0.10
2018-03-17T12:21:05.660Z,-0.30
2018-03-17T12:23:33.185Z,-0.20
2018-03-17T12:26:00.766Z,-0.40
2018-03-17T12:28:28.323Z,0.10
2018-03-17T12:30:56.026Z,-0.20
2018-03-17T12:33:23.563Z,-0.10
2018-03-17T12:35:51.129Z,-0.20
2018-03-17T12:38:19.411Z,0.10
2018-03-17T12:40:46.924Z,0.10
2018-03-17T12:43:14.436Z,-0.10
2018-03-17T12:45:41.956Z,-0.10
2018-03-17T12:48:09.443Z,0.10
2018-03-17T12:50:36.969Z,0.20
2018-03-17T12:53:04.485Z,0.00
2018-03-17T12:55:32.002Z,0.10
2018-03-17T12:57:59.540Z,-0.30
2018-03-17T13:00:27.051Z,-0.10
2018-03-17T13:02:55.359Z,-0.10
2018-03-17T13:05:23.656Z,-0.10
2018-03-17T13:07:51.276Z,-0.10
2018-03-17T13:10:18.788Z,0.10
2018-03-17T13:12:46.667Z,0.40
2018-03-17T13:15:14.197Z,0.00
2018-03-17T13:17:41.742Z,0.20
2018-03-17T13:20:09.263Z,0.40
2018-03-17T13:22:42.445Z,0.40
2018-03-17T13:25:10.023Z,0.20
2018-03-17T13:27:43.064Z,-0.10
2018-03-17T13:30:10.581Z,-0.20
2018-03-17T13:32:43.658Z,0.10
2018-03-17T13:35:11.173Z,0.50
2018-03-17T13:37:38.504Z,0.20
2018-03-17T13:40:11.645Z,0.00
2018-03-17T13:42:39.173Z,0.10
2018-03-17T13:45:06.688Z,0.20
2018-03-17T13:47:34.221Z,0.10
2018-03-17T13:50:01.742Z,-0.10
2018-03-17T13:52:29.240Z,0.20
2018-03-17T13:54:56.758Z,0.10
2018-03-17T13:57:24.281Z,-0.20
2018-03-17T13:59:51.825Z,0.20
2018-03-17T14:02:19.393Z,0.10
2018-03-17T14:04:47.839Z,0.40
2018-03-17T14:07:15.353Z,0.50
2018-03-17T14:09:42.852Z,0.60
2018-03-17T14:12:10.376Z,0.10
2018-03-17T14:14:37.896Z,-0.10
2018-03-17T14:17:05.426Z,0.40
2018-03-17T14:19:32.934Z,0.50
2018-03-17T14:22:00.463Z,0.60
2018-03-17T14:24:27.971Z,0.60
2018-03-17T14:26:55.602Z,0.50
2018-03-17T14:29:23.164Z,0.50
2018-03-17T14:31:50.705Z,0.40
2018-03-17T14:34:19.014Z,-0.10
2018-03-17T14:36:46.527Z,-0.10
2018-03-17T14:39:14.052Z,0.00
2018-03-17T14:41:42.359Z,0.00
2018-03-17T14:44:09.891Z,0.10
2018-03-17T14:46:37.414Z,0.10
2018-03-17T14:49:04.951Z,0.30
2018-03-17T14:51:32.449Z,0.40
2018-03-17T14:53:59.979Z,0.20
2018-03-17T14:56:27.510Z,0.20
2018-03-17T14:58:55.034Z,0.20
2018-03-17T15:01:23.353Z,0.20
2018-03-17T15:03:50.876Z,0.20
2018-03-17T15:06:18.382Z,0.30
2018-03-17T15:08:45.904Z,0.10
2018-03-17T15:11:13.472Z,0.10
2018-03-17T15:13:40.988Z,0.40
2018-03-17T15:16:08.483Z,0.20
2018-03-17T15:18:35.987Z,0.30
2018-03-17T15:21:03.519Z,0.10
2018-03-17T15:23:31.088Z,0.20
2018-03-17T15:25:58.571Z,0.30
2018-03-17T15:28:26.083Z,0.10
2018-03-17T15:30:53.595Z,0.00
2018-03-17T15:33:21.108Z,0.00
2018-03-17T15:35:48.614Z,0.00
2018-03-17T15:38:16.137Z,-0.20
2018-03-17T15:40:43.984Z,-0.40
2018-03-17T15:43:11.525Z,-0.20
2018-03-17T15:45:39.880Z,-0.50
2018-03-17T15:48:08.216Z,-0.50
2018-03-17T15:50:35.784Z,-0.50
2018-03-17T15:53:03.346Z,-0.50
2018-03-17T15:55:30.719Z,-0.60
2018-03-17T15:57:58.301Z,-0.60
2018-03-17T16:00:25.831Z,-0.50
2018-03-17T16:02:54.142Z,-0.60
2018-03-17T16:05:21.685Z,-0.60
2018-03-17T16:07:49.952Z,-0.70
2018-03-17T16:10:17.487Z,-0.60
2018-03-17T16:12:45.097Z,-0.60
2018-03-17T16:15:12.710Z,-0.50
2018-03-17T16:17:41.022Z,-0.50
2018-03-17T16:20:09.311Z,-0.40
2018-03-17T16:22:36.843Z,-0.50
2018-03-17T16:25:04.385Z,-0.50
2018-03-17T16:27:32.705Z,-0.40
2018-03-17T16:30:01.038Z,-0.30
2018-03-17T16:32:29.344Z,-0.20
2018-03-17T16:34:56.873Z,-0.20
2018-03-17T16:37:24.426Z,-0.30
2018-03-17T16:39:51.818Z,-0.30
2018-03-17T16:42:19.348Z,-0.20
2018-03-17T16:44:46.916Z,-0.40
2018-03-17T16:47:14.291Z,-0.30
2018-03-17T16:49:41.650Z,-0.20
2018-03-17T16:52:09.169Z,-0.30
2018-03-17T16:54:36.536Z,-0.20
2018-03-17T16:57:04.180Z,-0.20
2018-03-17T16:59:32.130Z,-0.20
2018-03-17T17:01:59.974Z,-0.20
2018-03-17T17:04:27.483Z,-0.20
2018-03-17T17:06:54.995Z,-0.20
2018-03-17T17:09:22.513Z,-0.20
2018-03-17T17:11:49.867Z,-0.20
2018-03-17T17:14:17.388Z,-0.30
2018-03-17T17:16:44.927Z,-0.20
2018-03-17T17:19:12.441Z,-0.20
2018-03-17T17:21:39.970Z,-0.20
2018-03-17T17:24:07.509Z,-0.20
2018-03-17T17:26:35.030Z,-0.20
2018-03-17T17:29:02.312Z,-0.20
2018-03-17T17:31:29.851Z,-0.20
2018-03-17T17:33:57.403Z,-0.10
2018-03-17T17:36:24.928Z,-0.20
2018-03-17T17:38:52.438Z,-0.20
2018-03-17T17:41:19.981Z,-0.20
2018-03-17T17:43:47.465Z,-0.20
2018-03-17T17:46:14.995Z,-0.20
2018-03-17T17:48:42.532Z,-0.20
2018-03-17T17:51:10.032Z,-0.20
2018-03-17T17:53:37.668Z,-0.20
2018-03-17T17:56:05.182Z,-0.30
2018-03-17T17:58:32.695Z,-0.20
2018-03-17T18:01:00.231Z,-0.20
2018-03-17T18:03:27.738Z,-0.30
2018-03-17T18:05:55.249Z,-0.30
2018-03-17T18:08:22.781Z,-0.30
2018-03-17T18:10:50.289Z,-0.30
2018-03-17T18:13:17.829Z,-0.30
2018-03-17T18:15:45.794Z,-0.20
2018-03-17T18:18:13.800Z,-0.30
2018-03-17T18:20:42.664Z,-0.30
2018-03-17T18:23:10.454Z,-0.30
2018-03-17T18:25:37.988Z,-0.40
2018-03-17T18:28:05.740Z,-0.30
2018-03-17T18:30:33.255Z,-0.20
2018-03-17T18:33:00.754Z,-0.30
2018-03-17T18:35:28.272Z,-0.30
2018-03-17T18:37:55.783Z,-0.40
2018-03-17T18:40:23.327Z,-0.40
2018-03-17T18:42:50.873Z,-0.40
2018-03-17T18:45:18.382Z,-0.40
2018-03-17T18:47:45.906Z,-0.40
2018-03-17T18:50:13.464Z,-0.30
2018-03-17T18:52:41.401Z,-0.40
2018-03-17T18:55:09.191Z,-0.40
2018-03-17T18:57:36.708Z,-0.40
2018-03-17T19:00:03.970Z,-0.40
2018-03-17T19:02:32.281Z,-0.40
2018-03-17T19:04:59.864Z,-0.40
2018-03-17T19:07:27.432Z,-0.40
2018-03-17T19:09:54.970Z,-0.40
2018-03-17T19:12:22.543Z,-0.40
2018-03-17T19:14:50.083Z,-0.40
2018-03-17T19:17:17.601Z,-0.30
2018-03-17T19:19:45.185Z,-0.40
2018-03-17T19:22:12.722Z,-0.40
2018-03-17T19:24:40.522Z,-0.40
2018-03-17T19:27:08.250Z,-0.40
2018-03-17T19:29:35.650Z,-0.40
2018-03-17T19:32:03.199Z,-0.40
2018-03-17T19:34:30.714Z,-0.40
2018-03-17T19:36:58.246Z,-0.50
2018-03-17T19:39:26.012Z,-0.40
2018-03-17T19:41:53.555Z,-0.40
2018-03-17T19:44:21.177Z,-0.40
2018-03-17T19:46:48.806Z,-0.40
2018-03-17T19:49:16.951Z,-0.50
2018-03-17T19:51:44.596Z,-0.40
2018-03-17T19:54:12.173Z,-0.50
2018-03-17T19:56:39.541Z,-0.50
2018-03-17T19:59:07.053Z,-0.50
2018-03-17T20:01:35.381Z,-0.50
2018-03-17T20:04:02.900Z,-0.50
2018-03-17T20:06:30.447Z,-0.40
2018-03-17T20:08:58.012Z,-0.40
2018-03-17T20:11:25.541Z,-0.50
2018-03-17T20:13:52.866Z,-0.50
2018-03-17T20:16:20.376Z,-0.50
2018-03-17T20:18:47.887Z,-0.50
2018-03-17T20:21:15.439Z,-0.50
2018-03-17T20:23:43.735Z,-0.60
2018-03-17T20:26:12.019Z,-0.50
2018-03-17T20:28:40.324Z,-0.50
2018-03-17T20:31:07.897Z,-0.50
2018-03-17T20:33:35.477Z,-0.60
2018-03-17T20:36:02.975Z,-0.50
2018-03-17T20:38:30.364Z,-0.50
2018-03-17T20:40:57.888Z,-0.50
2018-03-17T20:43:25.533Z,-0.50
2018-03-17T20:45:53.022Z,-0.60
2018-03-17T20:48:20.550Z,-0.60
2018-03-17T20:50:48.074Z,-0.60
2018-03-17T20:53:16.359Z,-0.60
2018-03-17T20:55:44.660Z,-0.60
2018-03-17T20:58:12.654Z,-0.60
2018-03-17T21:00:40.236Z,-0.60
2018-03-17T21:03:07.769Z,-0.60
2018-03-17T21:05:35.296Z,-0.60
2018-03-17T21:08:03.582Z,-0.60
2018-03-17T21:10:31.875Z,-0.60
2018-03-17T21:12:59.411Z,-0.70
2018-03-17T21:15:26.929Z,-0.70
2018-03-17T21:17:54.450Z,-0.60
2018-03-17T21:20:22.005Z,-0.70
2018-03-17T21:22:49.512Z,-0.70
2018-03-17T21:25:18.772Z,-0.70
2018-03-17T21:27:46.478Z,-0.70
2018-03-17T21:30:14.215Z,-0.70
2018-03-17T21:32:41.749Z,-0.80
2018-03-17T21:35:09.582Z,-0.70
2018-03-17T21:37:37.138Z,-0.80
2018-03-17T21:40:05.457Z,-0.80
2018-03-17T21:42:33.030Z,-0.70
2018-03-17T21:45:00.686Z,-0.70
2018-03-17T21:47:28.198Z,-0.70
2018-03-17T21:49:56.069Z,-0.80
2018-03-17T21:52:23.398Z,-0.70
2018-03-17T21:54:52.462Z,-0.70
2018-03-17T21:57:20.330Z,-0.70
2018-03-17T21:59:47.859Z,-0.80
2018-03-17T22:02:15.361Z,-0.80
2018-03-17T22:04:42.845Z,-0.70
2018-03-17T22:07:10.366Z,-0.80
2018-03-17T22:09:38.679Z,-0.80
2018-03-17T22:12:07.179Z,-0.70
2018-03-17T22:14:35.079Z,-0.80
2018-03-17T22:17:02.585Z,-0.80
2018-03-17T22:19:30.080Z,-0.70
2018-03-17T22:21:58.367Z,-0.80
2018-03-17T22:24:25.895Z,-0.90
2018-03-17T22:26:53.420Z,-0.80
2018-03-17T22:29:21.025Z,-0.80
2018-03-17T22:31:48.514Z,-0.80
2018-03-17T22:34:18.972Z,-0.70
2018-03-17T22:36:46.802Z,-0.80
2018-03-17T22:39:14.457Z,-0.90
2018-03-17T22:41:41.962Z,-0.90
2018-03-17T22:44:11.133Z,-0.80
2018-03-17T22:46:38.741Z,-0.90
2018-03-17T22:49:06.274Z,-0.90
2018-03-17T22:51:33.767Z,-0.80
2018-03-17T22:54:01.323Z,-0.80
2018-03-17T22:56:28.820Z,-0.90
2018-03-17T22:58:56.328Z,-0.90
2018-03-17T23:01:23.814Z,-0.90
2018-03-17T23:03:51.338Z,-0.90
2018-03-17T23:06:19.597Z,-1.00
2018-03-17T23:08:47.908Z,-0.90
2018-03-17T23:11:15.443Z,-0.90
2018-03-17T23:13:42.964Z,-1.00
2018-03-17T23:16:10.468Z,-1.00
2018-03-17T23:18:37.992Z,-1.00
2018-03-17T23:21:05.488Z,-1.00
2018-03-17T23:23:32.991Z,-0.90
2018-03-17T23:26:00.504Z,-1.00
2018-03-17T23:28:27.854Z,-1.00
2018-03-17T23:30:55.172Z,-1.00
2018-03-17T23:33:22.523Z,-1.00
2018-03-17T23:35:50.051Z,-1.00
2018-03-17T23:38:18.346Z,-1.00
2018-03-17T23:40:46.457Z,-1.00
2018-03-17T23:43:13.782Z,-1.00
2018-03-17T23:45:41.905Z,-1.00
2018-03-17T23:48:09.225Z,-1.00
2018-03-17T23:50:36.542Z,-1.00
2018-03-17T23:53:03.956Z,-1.00
2018-03-17T23:55:31.465Z,-1.10
2018-03-17T23:57:58.773Z,-1.00
